sensor_id;sensor_type;location;lat;lon;timestamp;P1;durP1;ratioP1;P2;durP2;ratioP2
61009;SDS011;46897;55.340;86.082;2022-10-30T14:40:33;17.73;;;5.93;;
61009;SDS011;46897;55.340;86.082;2022-10-30T14:43:09;17.90;;;7.32;;
61009;SDS011;46897;55.340;86.082;2022-10-30T14:45:46;13.55;;;6.18;;
61009;SDS011;46897;55.340;86.082;2022-10-30T14:51:00;20.65;;;6.05;;
61009;SDS011;46897;55.340;86.082;2022-10-30T14:53:39;13.73;;;6.30;;
61009;SDS011;46897;55.340;86.082;2022-10-30T14:56:26;20.65;;;7.93;;
61009;SDS011;46897;55.340;86.082;2022-10-30T14:59:09;25.85;;;9.80;;
61009;SDS011;46897;55.340;86.082;2022-10-30T15:01:57;31.05;;;11.38;;
61009;SDS011;46897;55.340;86.082;2022-10-30T15:04:47;15.53;;;6.47;;
61009;SDS011;46897;55.340;86.082;2022-10-30T15:07:36;19.75;;;7.30;;
61009;SDS011;46897;55.340;86.082;2022-10-30T15:12:50;15.68;;;5.22;;
61009;SDS011;46897;55.340;86.082;2022-10-30T15:15:33;13.60;;;5.43;;
61009;SDS011;46897;55.340;86.082;2022-10-30T15:18:06;14.30;;;5.18;;
61009;SDS011;46897;55.340;86.082;2022-10-30T15:20:37;14.00;;;5.43;;
61009;SDS011;46897;55.340;86.082;2022-10-30T15:23:08;20.55;;;7.78;;
61009;SDS011;46897;55.340;86.082;2022-10-30T15:25:46;17.35;;;7.05;;
61009;SDS011;46897;55.340;86.082;2022-10-30T15:28:19;28.42;;;7.85;;
61009;SDS011;46897;55.340;86.082;2022-10-30T15:30:59;34.72;;;9.98;;
61009;SDS011;46897;55.340;86.082;2022-10-30T15:33:30;31.35;;;9.23;;
61009;SDS011;46897;55.340;86.082;2022-10-30T15:36:01;27.92;;;7.30;;
61009;SDS011;46897;55.340;86.082;2022-10-30T15:38:30;18.92;;;7.90;;
61009;SDS011;46897;55.340;86.082;2022-10-30T15:41:02;27.90;;;9.02;;
61009;SDS011;46897;55.340;86.082;2022-10-30T15:43:51;31.13;;;10.23;;
61009;SDS011;46897;55.340;86.082;2022-10-30T15:46:20;27.58;;;10.15;;
61009;SDS011;46897;55.340;86.082;2022-10-30T15:48:50;27.05;;;9.70;;
61009;SDS011;46897;55.340;86.082;2022-10-30T15:51:20;26.15;;;8.90;;
61009;SDS011;46897;55.340;86.082;2022-10-30T15:53:51;29.42;;;10.25;;
61009;SDS011;46897;55.340;86.082;2022-10-30T15:56:27;31.73;;;10.07;;
61009;SDS011;46897;55.340;86.082;2022-10-30T15:59:00;24.67;;;8.98;;
61009;SDS011;46897;55.340;86.082;2022-10-30T16:01:32;25.80;;;8.85;;
61009;SDS011;46897;55.340;86.082;2022-10-30T16:04:12;26.30;;;8.68;;
61009;SDS011;46897;55.340;86.082;2022-10-30T16:06:55;22.02;;;8.88;;
61009;SDS011;46897;55.340;86.082;2022-10-30T16:09:27;25.90;;;9.00;;
61009;SDS011;46897;55.340;86.082;2022-10-30T16:11:57;45.60;;;15.32;;
61009;SDS011;46897;55.340;86.082;2022-10-30T16:14:29;52.92;;;16.75;;
61009;SDS011;46897;55.340;86.082;2022-10-30T16:17:04;125.35;;;35.92;;
61009;SDS011;46897;55.340;86.082;2022-10-30T16:19:34;54.17;;;15.95;;
61009;SDS011;46897;55.340;86.082;2022-10-30T16:22:11;35.13;;;11.63;;
61009;SDS011;46897;55.340;86.082;2022-10-30T16:24:44;30.40;;;10.52;;
61009;SDS011;46897;55.340;86.082;2022-10-30T16:27:14;30.48;;;9.45;;
61009;SDS011;46897;55.340;86.082;2022-10-30T16:29:47;32.78;;;9.80;;
61009;SDS011;46897;55.340;86.082;2022-10-30T16:32:19;21.02;;;8.20;;
61009;SDS011;46897;55.340;86.082;2022-10-30T16:34:53;29.77;;;8.88;;
61009;SDS011;46897;55.340;86.082;2022-10-30T16:37:26;24.95;;;8.02;;
61009;SDS011;46897;55.340;86.082;2022-10-30T16:40:01;28.70;;;8.52;;
61009;SDS011;46897;55.340;86.082;2022-10-30T16:42:34;27.08;;;9.45;;
61009;SDS011;46897;55.340;86.082;2022-10-30T16:45:18;23.40;;;8.68;;
61009;SDS011;46897;55.340;86.082;2022-10-30T16:48:15;18.63;;;7.45;;
61009;SDS011;46897;55.340;86.082;2022-10-30T16:51:00;22.00;;;7.95;;
61009;SDS011;46897;55.340;86.082;2022-10-30T16:53:31;23.27;;;7.78;;
61009;SDS011;46897;55.340;86.082;2022-10-30T16:56:00;19.67;;;7.68;;
61009;SDS011;46897;55.340;86.082;2022-10-30T16:58:30;20.50;;;8.18;;
61009;SDS011;46897;55.340;86.082;2022-10-30T17:01:03;17.52;;;6.95;;
61009;SDS011;46897;55.340;86.082;2022-10-30T17:03:35;22.05;;;7.95;;
61009;SDS011;46897;55.340;86.082;2022-10-30T17:06:24;17.80;;;7.47;;
61009;SDS011;46897;55.340;86.082;2022-10-30T17:08:57;14.77;;;5.72;;
61009;SDS011;46897;55.340;86.082;2022-10-30T17:11:32;20.00;;;6.70;;
61009;SDS011;46897;55.340;86.082;2022-10-30T17:14:03;14.73;;;5.95;;
61009;SDS011;46897;55.340;86.082;2022-10-30T17:16:51;20.33;;;6.45;;
61009;SDS011;46897;55.340;86.082;2022-10-30T17:19:37;33.92;;;17.70;;
61009;SDS011;46897;55.340;86.082;2022-10-30T17:22:14;30.35;;;15.13;;
61009;SDS011;46897;55.340;86.082;2022-10-30T17:24:47;28.58;;;13.90;;
61009;SDS011;46897;55.340;86.082;2022-10-30T17:27:36;23.17;;;9.55;;
61009;SDS011;46897;55.340;86.082;2022-10-30T17:33:25;14.55;;;5.82;;
61009;SDS011;46897;55.340;86.082;2022-10-30T17:36:02;26.65;;;8.75;;
61009;SDS011;46897;55.340;86.082;2022-10-30T17:38:32;129.75;;;36.22;;
61009;SDS011;46897;55.340;86.082;2022-10-30T17:41:01;164.38;;;50.88;;
61009;SDS011;46897;55.340;86.082;2022-10-30T17:43:32;181.40;;;55.10;;
61009;SDS011;46897;55.340;86.082;2022-10-30T17:46:14;224.25;;;65.65;;
61009;SDS011;46897;55.340;86.082;2022-10-30T17:48:47;251.07;;;74.95;;
61009;SDS011;46897;55.340;86.082;2022-10-30T17:51:20;268.15;;;81.53;;
61009;SDS011;46897;55.340;86.082;2022-10-30T17:53:49;277.50;;;83.30;;
61009;SDS011;46897;55.340;86.082;2022-10-30T17:56:18;286.77;;;87.28;;
61009;SDS011;46897;55.340;86.082;2022-10-30T17:58:50;297.85;;;90.75;;
61009;SDS011;46897;55.340;86.082;2022-10-30T18:01:20;283.50;;;88.00;;
61009;SDS011;46897;55.340;86.082;2022-10-30T18:03:52;281.20;;;86.95;;
61009;SDS011;46897;55.340;86.082;2022-10-30T18:06:24;252.60;;;78.82;;
61009;SDS011;46897;55.340;86.082;2022-10-30T18:08:55;249.35;;;75.60;;
61009;SDS011;46897;55.340;86.082;2022-10-30T18:11:24;235.88;;;67.90;;
61009;SDS011;46897;55.340;86.082;2022-10-30T18:13:55;223.27;;;66.40;;
61009;SDS011;46897;55.340;86.082;2022-10-30T18:16:27;220.98;;;64.70;;
61009;SDS011;46897;55.340;86.082;2022-10-30T18:18:59;223.63;;;63.38;;
61009;SDS011;46897;55.340;86.082;2022-10-30T18:21:28;220.80;;;66.00;;
61009;SDS011;46897;55.340;86.082;2022-10-30T18:23:57;208.02;;;59.47;;
61009;SDS011;46897;55.340;86.082;2022-10-30T18:26:27;247.82;;;72.32;;
61009;SDS011;46897;55.340;86.082;2022-10-30T18:29:07;137.82;;;44.42;;
61009;SDS011;46897;55.340;86.082;2022-10-30T18:31:38;250.90;;;73.18;;
61009;SDS011;46897;55.340;86.082;2022-10-30T18:34:55;201.15;;;60.78;;
61009;SDS011;46897;55.340;86.082;2022-10-30T18:37:32;231.80;;;66.82;;
61009;SDS011;46897;55.340;86.082;2022-10-30T18:40:02;255.90;;;75.38;;
61009;SDS011;46897;55.340;86.082;2022-10-30T18:42:31;255.32;;;75.18;;
61009;SDS011;46897;55.340;86.082;2022-10-30T18:45:01;263.20;;;79.53;;
61009;SDS011;46897;55.340;86.082;2022-10-30T18:47:37;258.20;;;77.70;;
61009;SDS011;46897;55.340;86.082;2022-10-30T18:50:08;262.98;;;81.70;;
61009;SDS011;46897;55.340;86.082;2022-10-30T18:52:39;255.57;;;76.88;;
61009;SDS011;46897;55.340;86.082;2022-10-30T18:56:07;253.88;;;77.60;;
61009;SDS011;46897;55.340;86.082;2022-10-30T18:58:37;314.70;;;97.85;;
61009;SDS011;46897;55.340;86.082;2022-10-30T19:01:15;300.48;;;92.70;;
61009;SDS011;46897;55.340;86.082;2022-10-30T19:03:53;270.55;;;84.30;;
61009;SDS011;46897;55.340;86.082;2022-10-30T19:06:31;277.75;;;85.20;;
61009;SDS011;46897;55.340;86.082;2022-10-30T19:09:25;249.20;;;77.22;;
61009;SDS011;46897;55.340;86.082;2022-10-30T19:11:55;250.82;;;74.63;;
61009;SDS011;46897;55.340;86.082;2022-10-30T19:14:24;263.55;;;77.40;;
61009;SDS011;46897;55.340;86.082;2022-10-30T19:16:54;251.50;;;70.22;;
61009;SDS011;46897;55.340;86.082;2022-10-30T19:19:23;257.65;;;73.35;;
61009;SDS011;46897;55.340;86.082;2022-10-30T19:21:54;279.10;;;78.40;;
61009;SDS011;46897;55.340;86.082;2022-10-30T19:24:25;246.23;;;71.43;;
61009;SDS011;46897;55.340;86.082;2022-10-30T19:26:55;238.00;;;71.30;;
61009;SDS011;46897;55.340;86.082;2022-10-30T19:29:24;249.50;;;74.25;;
61009;SDS011;46897;55.340;86.082;2022-10-30T19:31:54;241.80;;;70.68;;
61009;SDS011;46897;55.340;86.082;2022-10-30T19:34:24;246.60;;;70.00;;
61009;SDS011;46897;55.340;86.082;2022-10-30T19:36:55;221.23;;;63.72;;
61009;SDS011;46897;55.340;86.082;2022-10-30T19:39:24;240.38;;;65.75;;
61009;SDS011;46897;55.340;86.082;2022-10-30T19:41:54;241.45;;;65.28;;
61009;SDS011;46897;55.340;86.082;2022-10-30T19:44:23;240.10;;;65.75;;
61009;SDS011;46897;55.340;86.082;2022-10-30T19:46:52;236.07;;;69.22;;
61009;SDS011;46897;55.340;86.082;2022-10-30T19:49:21;218.00;;;58.40;;
61009;SDS011;46897;55.340;86.082;2022-10-30T19:51:51;208.32;;;58.50;;
61009;SDS011;46897;55.340;86.082;2022-10-30T19:54:21;197.27;;;56.15;;
61009;SDS011;46897;55.340;86.082;2022-10-30T19:56:51;202.70;;;57.40;;
61009;SDS011;46897;55.340;86.082;2022-10-30T19:59:20;213.57;;;60.25;;
61009;SDS011;46897;55.340;86.082;2022-10-30T20:01:49;190.05;;;58.08;;
61009;SDS011;46897;55.340;86.082;2022-10-30T20:04:19;213.75;;;60.22;;
61009;SDS011;46897;55.340;86.082;2022-10-30T20:06:48;206.73;;;60.03;;
61009;SDS011;46897;55.340;86.082;2022-10-30T20:09:17;196.05;;;57.25;;
61009;SDS011;46897;55.340;86.082;2022-10-30T20:11:48;186.20;;;55.17;;
61009;SDS011;46897;55.340;86.082;2022-10-30T20:14:17;189.00;;;55.63;;
61009;SDS011;46897;55.340;86.082;2022-10-30T20:16:46;181.68;;;54.90;;
61009;SDS011;46897;55.340;86.082;2022-10-30T20:19:21;159.75;;;50.97;;
61009;SDS011;46897;55.340;86.082;2022-10-30T20:21:55;168.98;;;48.55;;
61009;SDS011;46897;55.340;86.082;2022-10-30T20:24:24;166.57;;;50.20;;
61009;SDS011;46897;55.340;86.082;2022-10-30T20:26:55;156.77;;;48.72;;
61009;SDS011;46897;55.340;86.082;2022-10-30T20:29:25;178.27;;;46.97;;
61009;SDS011;46897;55.340;86.082;2022-10-30T20:31:54;160.55;;;45.50;;
61009;SDS011;46897;55.340;86.082;2022-10-30T20:34:23;156.57;;;43.65;;
61009;SDS011;46897;55.340;86.082;2022-10-30T20:36:53;145.63;;;42.92;;
61009;SDS011;46897;55.340;86.082;2022-10-30T20:39:22;142.93;;;44.92;;
61009;SDS011;46897;55.340;86.082;2022-10-30T20:41:51;151.02;;;42.13;;
61009;SDS011;46897;55.340;86.082;2022-10-30T20:44:22;150.52;;;43.85;;
61009;SDS011;46897;55.340;86.082;2022-10-30T20:46:51;145.38;;;41.50;;
61009;SDS011;46897;55.340;86.082;2022-10-30T20:49:20;130.60;;;40.83;;
61009;SDS011;46897;55.340;86.082;2022-10-30T20:51:49;156.60;;;47.40;;
61009;SDS011;46897;55.340;86.082;2022-10-30T20:54:19;170.93;;;52.20;;
61009;SDS011;46897;55.340;86.082;2022-10-30T20:56:48;176.45;;;52.83;;
61009;SDS011;46897;55.340;86.082;2022-10-30T20:59:17;159.27;;;49.55;;
61009;SDS011;46897;55.340;86.082;2022-10-30T21:01:48;149.68;;;46.55;;
61009;SDS011;46897;55.340;86.082;2022-10-30T21:04:17;139.43;;;44.53;;
61009;SDS011;46897;55.340;86.082;2022-10-30T21:06:47;117.35;;;36.60;;
61009;SDS011;46897;55.340;86.082;2022-10-30T21:09:16;124.45;;;39.15;;
61009;SDS011;46897;55.340;86.082;2022-10-30T21:11:45;122.25;;;35.33;;
61009;SDS011;46897;55.340;86.082;2022-10-30T21:14:15;129.80;;;39.33;;
61009;SDS011;46897;55.340;86.082;2022-10-30T21:16:44;128.07;;;38.83;;
61009;SDS011;46897;55.340;86.082;2022-10-30T21:19:15;141.80;;;37.47;;
61009;SDS011;46897;55.340;86.082;2022-10-30T21:21:44;129.73;;;39.70;;
61009;SDS011;46897;55.340;86.082;2022-10-30T21:24:13;133.05;;;41.88;;
61009;SDS011;46897;55.340;86.082;2022-10-30T21:26:42;131.30;;;39.30;;
61009;SDS011;46897;55.340;86.082;2022-10-30T21:29:12;119.88;;;39.40;;
61009;SDS011;46897;55.340;86.082;2022-10-30T21:31:41;143.88;;;40.58;;
61009;SDS011;46897;55.340;86.082;2022-10-30T21:34:10;137.63;;;41.25;;
61009;SDS011;46897;55.340;86.082;2022-10-30T21:36:41;136.98;;;40.53;;
61009;SDS011;46897;55.340;86.082;2022-10-30T21:39:11;145.30;;;42.13;;
61009;SDS011;46897;55.340;86.082;2022-10-30T21:41:40;136.10;;;41.33;;
61009;SDS011;46897;55.340;86.082;2022-10-30T21:44:09;148.02;;;43.25;;
61009;SDS011;46897;55.340;86.082;2022-10-30T21:46:38;161.30;;;48.13;;
61009;SDS011;46897;55.340;86.082;2022-10-30T21:49:08;145.27;;;41.13;;
61009;SDS011;46897;55.340;86.082;2022-10-30T21:51:39;153.20;;;44.75;;
61009;SDS011;46897;55.340;86.082;2022-10-30T21:54:10;136.05;;;41.55;;
61009;SDS011;46897;55.340;86.082;2022-10-30T21:56:39;137.38;;;42.15;;
61009;SDS011;46897;55.340;86.082;2022-10-30T21:59:09;122.55;;;40.30;;
61009;SDS011;46897;55.340;86.082;2022-10-30T22:01:39;123.85;;;40.40;;
61009;SDS011;46897;55.340;86.082;2022-10-30T22:04:09;123.97;;;39.67;;
61009;SDS011;46897;55.340;86.082;2022-10-30T22:06:39;108.03;;;35.42;;
61009;SDS011;46897;55.340;86.082;2022-10-30T22:09:14;95.75;;;32.05;;
61009;SDS011;46897;55.340;86.082;2022-10-30T22:11:45;89.18;;;30.20;;
61009;SDS011;46897;55.340;86.082;2022-10-30T22:14:14;87.00;;;26.77;;
61009;SDS011;46897;55.340;86.082;2022-10-30T22:16:43;90.32;;;31.17;;
61009;SDS011;46897;55.340;86.082;2022-10-30T22:19:13;95.13;;;29.52;;
61009;SDS011;46897;55.340;86.082;2022-10-30T22:21:43;84.97;;;27.70;;
61009;SDS011;46897;55.340;86.082;2022-10-30T22:24:14;83.45;;;24.55;;
61009;SDS011;46897;55.340;86.082;2022-10-30T22:26:43;89.63;;;25.33;;
61009;SDS011;46897;55.340;86.082;2022-10-30T22:29:13;77.18;;;24.02;;
61009;SDS011;46897;55.340;86.082;2022-10-30T22:31:42;80.40;;;23.77;;
61009;SDS011;46897;55.340;86.082;2022-10-30T22:34:11;71.38;;;22.40;;
61009;SDS011;46897;55.340;86.082;2022-10-30T22:36:40;64.85;;;21.67;;
61009;SDS011;46897;55.340;86.082;2022-10-30T22:39:10;72.32;;;24.23;;
61009;SDS011;46897;55.340;86.082;2022-10-30T22:41:42;67.70;;;22.58;;
61009;SDS011;46897;55.340;86.082;2022-10-30T22:44:13;81.28;;;23.58;;
61009;SDS011;46897;55.340;86.082;2022-10-30T22:46:49;87.28;;;27.88;;
61009;SDS011;46897;55.340;86.082;2022-10-30T22:49:39;89.45;;;26.70;;
61009;SDS011;46897;55.340;86.082;2022-10-30T22:52:09;98.60;;;30.30;;
61009;SDS011;46897;55.340;86.082;2022-10-30T22:54:44;80.05;;;27.60;;
61009;SDS011;46897;55.340;86.082;2022-10-30T22:57:23;74.95;;;24.27;;
61009;SDS011;46897;55.340;86.082;2022-10-30T22:59:52;71.60;;;25.95;;
61009;SDS011;46897;55.340;86.082;2022-10-30T23:02:21;78.07;;;25.23;;
61009;SDS011;46897;55.340;86.082;2022-10-30T23:04:51;90.47;;;28.92;;
61009;SDS011;46897;55.340;86.082;2022-10-30T23:07:20;85.95;;;28.10;;
61009;SDS011;46897;55.340;86.082;2022-10-30T23:09:49;84.78;;;25.38;;
61009;SDS011;46897;55.340;86.082;2022-10-30T23:12:18;87.18;;;27.63;;
61009;SDS011;46897;55.340;86.082;2022-10-30T23:14:49;58.28;;;22.40;;
61009;SDS011;46897;55.340;86.082;2022-10-30T23:17:18;82.00;;;25.33;;
61009;SDS011;46897;55.340;86.082;2022-10-30T23:19:47;72.28;;;24.98;;
61009;SDS011;46897;55.340;86.082;2022-10-30T23:22:16;75.90;;;24.13;;
61009;SDS011;46897;55.340;86.082;2022-10-30T23:24:46;76.43;;;23.30;;
61009;SDS011;46897;55.340;86.082;2022-10-30T23:27:15;81.50;;;26.95;;
61009;SDS011;46897;55.340;86.082;2022-10-30T23:29:46;81.70;;;25.92;;
61009;SDS011;46897;55.340;86.082;2022-10-30T23:32:16;77.07;;;25.98;;
61009;SDS011;46897;55.340;86.082;2022-10-30T23:34:46;74.63;;;23.27;;
61009;SDS011;46897;55.340;86.082;2022-10-30T23:37:15;79.63;;;23.33;;
61009;SDS011;46897;55.340;86.082;2022-10-30T23:39:44;70.50;;;23.73;;
61009;SDS011;46897;55.340;86.082;2022-10-30T23:42:13;78.45;;;25.63;;
61009;SDS011;46897;55.340;86.082;2022-10-30T23:44:43;75.15;;;26.88;;
61009;SDS011;46897;55.340;86.082;2022-10-30T23:47:12;90.63;;;27.33;;
61009;SDS011;46897;55.340;86.082;2022-10-30T23:49:42;101.78;;;32.45;;
61009;SDS011;46897;55.340;86.082;2022-10-30T23:52:11;96.90;;;29.17;;
61009;SDS011;46897;55.340;86.082;2022-10-30T23:54:41;97.03;;;35.53;;
61009;SDS011;46897;55.340;86.082;2022-10-30T23:57:10;102.15;;;33.30;;
61009;SDS011;46897;55.340;86.082;2022-10-30T23:59:39;98.60;;;31.77;;
